Hauptseite
METAR-TAF:

METAR-TAF

Flughäfen :

Flughafen Sylt

Westerland, Deutschland

Breite: 54-55N, Länge: 008-21E, Höhe: 16 m

Beobachtung

Neuester Wetterbericht von vor 23 Minuten, um 01:20 UTC
Wind 6 kt aus Südost
Temperatur 11°C
Luftfeuchtigkeit 82%
Luftdruck 1027 hPa
Sichtweite 10 km oder mehr

METAR: EDXW 310120Z AUTO 13006KT 9999 // NCD 11/08 Q1027

Zeit: 03:43 (01:43 UTC)

Prognose

Neuester Wetterbericht von vor 11 Stunden und 43 Minuten, um 14:00 UTC
Gültige Prognose vom 30 um 15 UTC bis 30 um 21 UTC
Wind 11 kt aus Nord/Nordwest
Sichtweite 10 km oder mehr
keine Wolken unter 1500 m und keine Kumulonimbus oder Gewitterwolken
Übergehend zu
vom 30 um 18 UTC bis 30 um 20 UTC
Wind 9 kt aus Ost/Nordost

TAF: EDXW 301400Z 3015/3021 34011KT CAVOK BECMG 3018/3020 06009KT

Wetterbeobachtungen und Prognosen von mehr als 4000 Flughäfen (METAR und TAF Bericht).

Die verfügbaren Stationen werden durch gelbe und rote Markierungen auf der Karte dargestellt.

Führen Sie die Maus auf sie, um den Namen der Station zu sehen.

Darauf klicken, um die Beobachtung von Wetterbeobachtungen und Prognosen zu sehen.

Um die Karte zu ändern : klicken Sie auf den grünen Tasten mit einem schwarzen Kreuz Zum Vergrößern, auf den grünen Button mit einem Gedankenstrich zu verkleinern, oder auf die grünen Pfeile für benachbarte Karten.


METAR-TAF: